Time;durP1;ratioP1;P1;durP2;ratioP2;P2;SDS_P1;SDS_P2;PMS_P1;PMS_P2;Temp;Humidity;BMP_temperature;BMP_pressure;BME280_temperature;BME280_humidity;BME280_pressure;Samples;Min_cycle;Max_cycle;Signal;HPM_P1;HPM_P2
2021/05/05 00:00:29;;;;;;;1.45;1.35;;;;;;;13.30;82.13;98584.44;5092385;28;20120;-78
2021/05/05 00:02:55;;;;;;;0.38;0.38;;;;;;;13.44;82.10;98583.09;5092303;28;20042;-79
2021/05/05 00:05:20;;;;;;;0.57;0.57;;;;;;;13.41;82.25;98592.31;5091972;28;20028;-79
2021/05/05 00:07:46;;;;;;;0.93;0.93;;;;;;;13.43;82.30;98589.88;5092882;28;20032;-77
2021/05/05 00:10:13;;;;;;;0.43;0.43;;;;;;;13.12;83.17;98547.50;5092215;28;20031;-77
2021/05/05 00:12:40;;;;;;;0.43;0.43;;;;;;;13.31;83.53;98574.13;5092094;28;20059;-78
2021/05/05 00:15:15;;;;;;;0.45;0.45;;;;;;;13.08;83.25;98535.78;5091999;28;20059;-77
2021/05/05 00:17:40;;;;;;;1.35;1.25;;;;;;;12.99;83.99;98542.84;5092093;28;20106;-80
2021/05/05 00:20:08;;;;;;;0.40;0.40;;;;;;;13.20;83.57;98560.63;5091898;28;20169;-79
2021/05/05 00:22:34;;;;;;;0.52;0.50;;;;;;;12.64;83.03;98508.97;5091858;28;20024;-78
2021/05/05 00:24:59;;;;;;;1.35;1.02;;;;;;;13.20;84.14;98582.09;5092276;28;20025;-76
2021/05/05 00:27:25;;;;;;;0.82;0.82;;;;;;;13.24;84.03;98583.50;5092063;28;20101;-76
2021/05/05 00:29:51;;;;;;;0.88;0.88;;;;;;;13.27;83.21;98593.66;5092056;28;20031;-76
2021/05/05 00:32:17;;;;;;;0.70;0.70;;;;;;;13.19;83.73;98581.31;5092291;28;20043;-78
2021/05/05 00:34:42;;;;;;;0.40;0.40;;;;;;;12.95;84.73;98552.53;5092327;28;20032;-76
2021/05/05 00:37:08;;;;;;;0.43;0.43;;;;;;;12.98;85.61;98577.34;5092202;28;20051;-77
2021/05/05 00:39:33;;;;;;;0.70;0.70;;;;;;;12.77;86.03;98572.63;5091594;28;20039;-76
2021/05/05 00:41:59;;;;;;;0.80;0.80;;;;;;;12.94;85.96;98575.94;5092091;28;20028;-79
2021/05/05 00:44:24;;;;;;;0.47;0.47;;;;;;;12.98;85.61;98569.03;5091881;28;20028;-77
2021/05/05 00:46:50;;;;;;;1.30;1.08;;;;;;;12.86;85.70;98542.16;5091827;28;20028;-78
2021/05/05 00:49:16;;;;;;;0.60;0.60;;;;;;;13.00;85.41;98563.81;5091722;28;20028;-77
2021/05/05 00:51:42;;;;;;;1.55;1.23;;;;;;;12.98;85.36;98549.59;5091742;28;20411;-77
2021/05/05 00:54:08;;;;;;;0.17;0.17;;;;;;;13.00;85.67;98576.88;5091868;28;20032;-77
2021/05/05 00:56:33;;;;;;;0.73;0.73;;;;;;;13.05;85.18;98556.88;5091657;28;20028;-78
2021/05/05 00:58:59;;;;;;;0.88;0.88;;;;;;;13.01;84.81;98550.72;5091575;28;20067;-75
2021/05/05 01:01:25;;;;;;;1.48;1.38;;;;;;;13.04;86.06;98547.00;5091678;28;20113;-76
2021/05/05 01:03:50;;;;;;;0.30;0.30;;;;;;;13.04;85.93;98544.22;5091771;28;20035;-77
2021/05/05 01:06:16;;;;;;;2.22;0.50;;;;;;;13.13;85.50;98551.84;5091496;28;20181;-76
2021/05/05 01:08:44;;;;;;;0.75;0.75;;;;;;;13.12;85.30;98553.06;5094974;28;20027;-76
2021/05/05 01:11:10;;;;;;;0.45;0.40;;;;;;;13.20;85.23;98571.00;5095127;28;20036;-77
2021/05/05 01:13:35;;;;;;;0.47;0.47;;;;;;;13.09;85.13;98560.28;5095115;28;20032;-76
2021/05/05 01:16:01;;;;;;;1.02;1.02;;;;;;;13.18;85.25;98559.56;5095029;28;20039;-76
2021/05/05 01:18:26;;;;;;;0.32;0.32;;;;;;;13.25;84.47;98551.75;5094861;28;20070;-77
2021/05/05 01:20:59;;;;;;;0.65;0.65;;;;;;;13.12;84.91;98539.97;5095051;28;20032;-78
2021/05/05 01:23:26;;;;;;;0.47;0.47;;;;;;;13.20;84.89;98546.03;5095423;28;20021;-77
2021/05/05 01:25:52;;;;;;;1.67;1.30;;;;;;;12.99;84.45;98506.78;5094919;28;20122;-78
2021/05/05 01:28:18;;;;;;;0.40;0.40;;;;;;;13.10;85.17;98536.09;5095458;28;20028;-78
2021/05/05 01:30:44;;;;;;;0.60;0.60;;;;;;;13.07;84.40;98525.91;5095363;28;20032;-77
2021/05/05 01:33:11;;;;;;;0.20;0.20;;;;;;;12.96;83.98;98506.94;5094838;28;20034;-77
2021/05/05 01:35:37;;;;;;;0.32;0.32;;;;;;;13.09;84.63;98543.63;5094790;28;20221;-78
2021/05/05 01:38:03;;;;;;;0.38;0.38;;;;;;;13.07;84.65;98528.69;5094633;28;20023;-77
2021/05/05 01:40:31;;;;;;;1.00;0.63;;;;;;;13.13;84.22;98538.75;5094678;28;20059;-77
2021/05/05 01:42:58;;;;;;;0.32;0.32;;;;;;;12.79;83.42;98469.56;5094689;28;20028;-77
2021/05/05 01:45:24;;;;;;;0.82;0.82;;;;;;;13.22;84.04;98538.00;5094997;28;20043;-77
2021/05/05 01:47:57;;;;;;;0.52;0.52;;;;;;;12.90;85.59;98503.22;5094421;28;20020;-77
2021/05/05 01:50:23;;;;;;;0.55;0.55;;;;;;;13.18;84.85;98537.38;5094548;28;20115;-77
2021/05/05 01:52:48;;;;;;;0.10;0.10;;;;;;;13.14;85.11;98536.75;5094454;28;20495;-77
2021/05/05 01:55:14;;;;;;;0.30;0.30;;;;;;;13.10;84.93;98534.09;5094363;28;20024;-77
2021/05/05 01:57:43;;;;;;;1.27;0.68;;;;;;;13.04;85.81;98516.50;5094365;28;20377;-77
2021/05/05 02:00:15;;;;;;;0.30;0.30;;;;;;;12.99;86.33;98515.09;5093961;28;20086;-78
2021/05/05 02:02:41;;;;;;;0.65;0.45;;;;;;;12.88;87.55;98508.44;5094331;28;20082;-77
2021/05/05 02:05:08;;;;;;;0.40;0.40;;;;;;;12.75;88.16;98482.81;5094704;28;20024;-78
2021/05/05 02:07:34;;;;;;;1.00;1.00;;;;;;;12.91;87.56;98502.75;5094180;28;20020;-78
2021/05/05 02:10:00;;;;;;;2.33;1.13;;;;;;;12.97;87.22;98502.91;5093994;28;20024;-77
2021/05/05 02:12:28;;;;;;;1.10;0.65;;;;;;;12.63;87.50;98457.53;5093994;28;20024;-76
2021/05/05 02:14:53;;;;;;;0.20;0.20;;;;;;;12.78;87.63;98479.88;5094109;28;20032;-77
2021/05/05 02:17:19;;;;;;;0.30;0.30;;;;;;;13.00;86.96;98496.47;5094317;28;20092;-76
2021/05/05 02:19:45;;;;;;;0.50;0.50;;;;;;;12.87;88.23;98493.78;5093904;28;20476;-76
2021/05/05 02:22:10;;;;;;;0.40;0.40;;;;;;;12.83;88.19;98493.19;5094071;28;20024;-76
2021/05/05 02:24:36;;;;;;;0.35;0.35;;;;;;;12.98;86.93;98494.13;5093847;28;20055;-78
2021/05/05 02:27:02;;;;;;;0.22;0.22;;;;;;;12.72;86.55;98459.53;5093724;28;20088;-77
2021/05/05 02:29:27;;;;;;;0.30;0.30;;;;;;;12.60;86.98;98479.81;5094050;28;20544;-78
2021/05/05 02:31:53;;;;;;;0.20;0.20;;;;;;;12.49;88.23;98491.31;5093645;28;20034;-77
2021/05/05 02:34:20;;;;;;;0.68;0.68;;;;;;;12.42;90.06;98497.13;5093541;28;20170;-77
2021/05/05 02:36:45;;;;;;;1.20;1.20;;;;;;;12.35;91.05;98491.09;5094144;28;20020;-77
2021/05/05 02:39:12;;;;;;;2.67;0.75;;;;;;;12.21;90.98;98473.78;5093431;28;20554;-78
2021/05/05 02:41:39;;;;;;;0.52;0.52;;;;;;;12.46;90.12;98497.78;5093740;28;20027;-77
2021/05/05 02:44:05;;;;;;;0.55;0.55;;;;;;;12.38;90.26;98484.63;5093397;28;20093;-78
2021/05/05 02:46:31;;;;;;;0.40;0.40;;;;;;;12.28;89.67;98474.75;5093494;28;20483;-77
2021/05/05 02:48:56;;;;;;;0.10;0.10;;;;;;;12.17;90.87;98484.22;5093501;28;20120;-79
2021/05/05 02:51:22;;;;;;;1.65;0.95;;;;;;;12.17;90.56;98462.06;5093257;28;20134;-78
2021/05/05 02:53:48;;;;;;;0.47;0.47;;;;;;;12.39;90.93;98497.28;5093740;28;20123;-77
2021/05/05 02:56:13;;;;;;;0.90;0.90;;;;;;;12.38;89.58;98484.63;5093124;28;20029;-78
2021/05/05 02:58:39;;;;;;;0.47;0.47;;;;;;;12.58;87.92;98504.47;5093215;28;20039;-76
2021/05/05 03:01:04;;;;;;;0.65;0.65;;;;;;;12.55;88.12;98495.03;5093144;28;20048;-77
2021/05/05 03:03:30;;;;;;;0.50;0.50;;;;;;;12.39;88.07;98475.88;5093018;28;20035;-78
2021/05/05 03:05:55;;;;;;;1.25;0.68;;;;;;;12.84;87.74;98516.13;5093667;28;20093;-76
2021/05/05 03:08:21;;;;;;;0.52;0.52;;;;;;;12.80;86.74;98507.94;5093031;28;20548;-77
2021/05/05 03:10:48;;;;;;;0.82;0.82;;;;;;;12.90;86.64;98528.16;5092937;28;20024;-76
2021/05/05 03:13:14;;;;;;;0.30;0.30;;;;;;;12.83;87.63;98529.22;5092806;28;20499;-77
2021/05/05 03:15:40;;;;;;;0.40;0.40;;;;;;;12.84;89.50;98538.31;5093036;28;20032;-77
2021/05/05 03:18:06;;;;;;;0.35;0.35;;;;;;;12.41;90.45;98480.97;5093317;28;20028;-77
2021/05/05 03:20:32;;;;;;;0.75;0.75;;;;;;;12.54;90.06;98487.94;5092859;28;20065;-77
2021/05/05 03:22:57;;;;;;;0.55;0.55;;;;;;;12.92;90.09;98539.56;5093424;28;20116;-77
2021/05/05 03:25:23;;;;;;;0.68;0.68;;;;;;;12.57;89.58;98517.53;5092708;28;20415;-76
2021/05/05 03:27:48;;;;;;;0.35;0.35;;;;;;;12.76;89.62;98510.09;5092592;28;20169;-77
2021/05/05 03:30:14;;;;;;;0.10;0.10;;;;;;;12.88;89.60;98528.63;5092358;28;20028;-76
2021/05/05 03:32:40;;;;;;;1.13;0.45;;;;;;;12.92;89.01;98525.69;5092408;28;20032;-77
2021/05/05 03:35:06;;;;;;;0.82;0.82;;;;;;;12.90;89.38;98542.78;5092532;28;20043;-77
2021/05/05 03:37:32;;;;;;;0.90;0.90;;;;;;;12.94;89.79;98553.75;5092548;28;20031;-77
2021/05/05 03:39:58;;;;;;;1.42;1.20;;;;;;;13.01;89.30;98551.47;5092341;28;20046;-76
2021/05/05 03:42:23;;;;;;;1.08;1.05;;;;;;;13.04;89.26;98558.09;5092413;28;20111;-76
2021/05/05 03:44:49;;;;;;;0.30;0.30;;;;;;;12.84;91.75;98555.69;5092422;28;20038;-75
2021/05/05 03:47:14;;;;;;;0.40;0.40;;;;;;;12.85;93.41;98557.25;5092258;28;20024;-75
2021/05/05 03:49:40;;;;;;;0.73;0.73;;;;;;;12.75;92.18;98543.81;5092230;28;20027;-75
2021/05/05 03:52:05;;;;;;;1.77;1.10;;;;;;;12.88;91.49;98559.13;5092181;28;20024;-76
2021/05/05 03:54:31;;;;;;;0.70;0.70;;;;;;;13.00;90.05;98566.56;5092573;28;20032;-75
2021/05/05 03:56:56;;;;;;;0.73;0.73;;;;;;;13.02;89.42;98566.09;5092857;28;20055;-76
2021/05/05 03:59:22;;;;;;;0.55;0.55;;;;;;;12.88;90.57;98567.44;5092146;28;20032;-75
2021/05/05 04:01:47;;;;;;;0.40;0.40;;;;;;;12.89;92.38;98566.22;5092193;28;20108;-78
2021/05/05 04:04:13;;;;;;;0.40;0.40;;;;;;;13.00;90.47;98549.94;5092259;28;20028;-77
2021/05/05 04:06:39;;;;;;;0.50;0.50;;;;;;;13.15;90.44;98579.88;5091919;28;20028;-77
2021/05/05 04:09:05;;;;;;;1.00;0.82;;;;;;;12.95;91.29;98556.06;5092700;28;20047;-75
2021/05/05 04:11:30;;;;;;;0.57;0.57;;;;;;;13.10;91.66;98564.59;5092729;28;20541;-77
2021/05/05 04:13:56;;;;;;;0.52;0.52;;;;;;;13.02;95.41;98561.31;5092186;28;20475;-77
2021/05/05 04:16:21;;;;;;;0.20;0.20;;;;;;;13.09;98.26;98560.28;5091886;28;20103;-77
2021/05/05 04:18:47;;;;;;;0.60;0.60;;;;;;;12.89;97.50;98523.84;5091868;28;20028;-77
2021/05/05 04:21:13;;;;;;;0.88;0.88;;;;;;;13.17;97.74;98572.66;5091089;28;20105;-77
2021/05/05 04:23:39;;;;;;;0.32;0.32;;;;;;;13.23;95.77;98570.06;5091473;28;20381;-76
2021/05/05 04:26:06;;;;;;;0.75;0.75;;;;;;;13.37;95.77;98580.59;5091515;28;20062;-77
2021/05/05 04:28:32;;;;;;;0.35;0.35;;;;;;;13.07;95.43;98539.78;5091667;28;20028;-75
2021/05/05 04:30:57;;;;;;;1.23;1.17;;;;;;;13.25;96.21;98585.03;5091510;28;20039;-78
2021/05/05 04:33:24;;;;;;;0.55;0.55;;;;;;;12.88;95.56;98550.81;5091612;28;20101;-76
2021/05/05 04:35:49;;;;;;;4.03;2.78;;;;;;;13.25;95.46;98601.69;5091346;28;20036;-76
2021/05/05 04:38:15;;;;;;;0.30;0.30;;;;;;;13.19;95.11;98594.41;5091354;28;20522;-74
2021/05/05 04:40:41;;;;;;;2.40;1.73;;;;;;;13.23;95.46;98597.81;5091120;28;20081;-76
2021/05/05 04:43:06;;;;;;;0.50;0.50;;;;;;;13.29;93.03;98585.66;5094199;28;20024;-74
2021/05/05 04:45:32;;;;;;;0.63;0.63;;;;;;;13.02;95.12;98571.63;5094813;28;20035;-75
2021/05/05 04:47:59;;;;;;;1.00;0.75;;;;;;;13.17;97.16;98605.19;5094819;28;20060;-75
2021/05/05 04:50:25;;;;;;;3.50;0.73;;;;;;;13.09;94.76;98571.38;5094814;28;20020;-74
2021/05/05 04:52:51;;;;;;;0.65;0.65;;;;;;;13.38;94.69;98615.47;5094703;28;20028;-77
2021/05/05 04:55:17;;;;;;;0.63;0.63;;;;;;;13.34;95.78;98620.34;5095163;28;20080;-78
2021/05/05 04:57:42;;;;;;;1.45;0.68;;;;;;;13.40;94.88;98607.44;5094893;28;20049;-77
2021/05/05 05:00:08;;;;;;;3.83;1.20;;;;;;;13.23;94.76;98586.72;5094828;28;20059;-75
2021/05/05 05:02:34;;;;;;;0.65;0.65;;;;;;;13.11;96.43;98602.19;5095371;28;20032;-78
2021/05/05 05:05:03;;;;;;;0.95;0.95;;;;;;;12.79;97.74;98563.84;5095070;28;20472;-78
2021/05/05 05:07:29;;;;;;;0.22;0.22;;;;;;;12.85;97.56;98565.56;5095124;28;20020;-78
2021/05/05 05:09:55;;;;;;;0.20;0.20;;;;;;;12.87;97.97;98565.88;5094946;28;20432;-78
2021/05/05 05:12:20;;;;;;;0.95;0.70;;;;;;;12.96;97.75;98593.66;5094834;28;20043;-79
2021/05/05 05:14:46;;;;;;;0.30;0.30;;;;;;;12.89;97.76;98569.00;5094956;28;20028;-78
2021/05/05 05:17:11;;;;;;;0.75;0.60;;;;;;;12.96;98.59;98577.00;5095242;28;20032;-77
2021/05/05 05:19:37;;;;;;;1.08;1.00;;;;;;;13.09;98.41;98576.91;5094646;28;20480;-79
2021/05/05 05:22:03;;;;;;;0.68;0.68;;;;;;;12.98;96.35;98563.47;5095510;28;20028;-77
2021/05/05 05:24:28;;;;;;;0.73;0.73;;;;;;;13.00;96.01;98530.53;5095047;28;20471;-77
2021/05/05 05:26:54;;;;;;;4.60;0.90;;;;;;;13.16;95.67;98571.13;5094699;28;20572;-75
2021/05/05 05:29:19;;;;;;;1.13;1.13;;;;;;;13.17;95.92;98541.38;5094359;28;20031;-77
2021/05/05 05:31:45;;;;;;;0.60;0.60;;;;;;;13.10;98.73;98547.19;5094317;28;20090;-78
2021/05/05 05:34:11;;;;;;;9.43;0.65;;;;;;;13.07;96.37;98553.66;5094917;28;20115;-76
2021/05/05 05:36:37;;;;;;;0.40;0.40;;;;;;;13.14;98.33;98561.72;5094387;28;20051;-75
2021/05/05 05:39:13;;;;;;;0.43;0.43;;;;;;;13.54;97.68;98558.91;5094352;28;20032;-75
2021/05/05 05:41:39;;;;;;;0.45;0.45;;;;;;;13.93;93.18;98593.34;5094512;28;20036;-75
2021/05/05 05:44:05;;;;;;;1.95;1.30;;;;;;;13.96;92.84;98565.44;5094411;28;20039;-76
2021/05/05 05:46:30;;;;;;;3.13;2.53;;;;;;;13.60;93.38;98585.59;5094444;28;20024;-76
2021/05/05 05:48:56;;;;;;;1.58;1.48;;;;;;;13.30;94.07;98536.50;5094416;28;20020;-78
2021/05/05 05:51:21;;;;;;;0.50;0.50;;;;;;;13.66;94.48;98566.31;5094858;28;20032;-75
2021/05/05 05:53:47;;;;;;;0.90;0.90;;;;;;;14.32;90.70;98542.41;5093986;28;20028;-76
2021/05/05 05:56:12;;;;;;;0.98;0.98;;;;;;;14.44;89.92;98513.69;5094089;28;20032;-74
2021/05/05 05:58:38;;;;;;;0.45;0.45;;;;;;;15.17;86.58;98538.47;5094115;28;20031;-75
2021/05/05 06:01:04;;;;;;;0.95;0.95;;;;;;;16.04;82.56;98495.47;5093661;28;20059;-75
2021/05/05 06:03:30;;;;;;;0.85;0.85;;;;;;;15.21;83.85;98538.28;5094793;28;20403;-77
2021/05/05 06:05:56;;;;;;;0.57;0.57;;;;;;;15.93;84.15;98576.06;5094134;28;20024;-76
2021/05/05 06:08:22;;;;;;;1.50;1.27;;;;;;;15.97;82.81;98487.50;5094032;28;20035;-76
2021/05/05 06:10:48;;;;;;;1.67;1.58;;;;;;;15.90;78.05;98501.03;5094193;28;20518;-76
2021/05/05 06:13:14;;;;;;;0.93;0.93;;;;;;;15.24;81.43;98526.22;5093999;28;20483;-77
2021/05/05 06:15:40;;;;;;;0.70;0.70;;;;;;;16.33;77.12;98574.84;5093788;28;20086;-78
2021/05/05 06:18:06;;;;;;;4.47;1.95;;;;;;;16.93;75.95;98568.81;5093925;28;20028;-75
2021/05/05 06:20:32;;;;;;;1.15;1.15;;;;;;;18.19;72.28;98565.53;5093535;28;20021;-77
2021/05/05 06:22:58;;;;;;;7.90;1.38;;;;;;;19.17;66.18;98567.47;5093630;28;20032;-76
2021/05/05 06:25:23;;;;;;;0.40;0.40;;;;;;;20.39;60.89;98520.41;5093323;28;20464;-75
2021/05/05 06:27:49;;;;;;;0.95;0.95;;;;;;;21.10;59.23;98583.53;5093991;28;20460;-76
2021/05/05 06:30:15;;;;;;;0.80;0.80;;;;;;;21.21;57.80;98576.41;5093349;28;20480;-75
2021/05/05 06:32:41;;;;;;;0.55;0.55;;;;;;;21.69;55.49;98548.72;5093662;28;20060;-75
2021/05/05 06:35:07;;;;;;;0.20;0.20;;;;;;;21.20;56.65;98574.88;5093068;28;20059;-75
2021/05/05 06:37:33;;;;;;;0.45;0.45;;;;;;;21.15;57.13;98579.22;5093220;28;20035;-77
2021/05/05 06:40:00;;;;;;;0.32;0.32;;;;;;;22.84;51.65;98587.34;5093375;28;20028;-78
2021/05/05 06:42:29;;;;;;;2.07;0.87;;;;;;;22.46;50.53;98580.63;5093376;28;20024;-75
2021/05/05 06:44:54;;;;;;;0.40;0.40;;;;;;;22.55;50.90;98583.13;5093347;28;20258;-75
2021/05/05 06:47:20;;;;;;;1.95;0.85;;;;;;;22.87;50.44;98569.38;5092958;28;20391;-75
2021/05/05 06:49:45;;;;;;;0.63;0.52;;;;;;;23.26;50.98;98588.81;5092887;28;20480;-77
2021/05/05 06:52:11;;;;;;;0.55;0.55;;;;;;;23.45;50.35;98552.97;5091864;28;20031;-75
2021/05/05 06:54:36;;;;;;;0.70;0.70;;;;;;;23.30;49.34;98586.44;5090623;28;20035;-76
2021/05/05 06:57:02;;;;;;;0.30;0.30;;;;;;;22.90;49.00;98565.53;5090509;28;20032;-75
2021/05/05 06:59:28;;;;;;;0.38;0.38;;;;;;;23.00;49.55;98591.31;5090306;28;20028;-75
2021/05/05 07:01:53;;;;;;;0.98;0.88;;;;;;;22.15;51.34;98550.88;5090898;28;20070;-74
2021/05/05 07:04:19;;;;;;;0.75;0.73;;;;;;;21.78;53.26;98576.56;5090519;28;20024;-74
2021/05/05 07:06:44;;;;;;;0.57;0.57;;;;;;;21.23;51.54;98543.69;5090936;28;20476;-74
2021/05/05 07:09:10;;;;;;;0.30;0.30;;;;;;;21.65;51.62;98595.25;5092285;28;20051;-75
2021/05/05 07:11:38;;;;;;;0.70;0.70;;;;;;;22.21;50.34;98596.63;5092608;28;20395;-75
2021/05/05 07:14:04;;;;;;;0.70;0.70;;;;;;;23.02;47.16;98552.88;5092583;28;20035;-75
2021/05/05 07:16:30;;;;;;;0.70;0.70;;;;;;;22.68;47.88;98557.97;5093010;28;20064;-75
2021/05/05 07:18:55;;;;;;;0.50;0.50;;;;;;;22.65;48.84;98558.25;5092396;28;20028;-76
2021/05/05 07:21:21;;;;;;;0.40;0.40;;;;;;;22.73;51.55;98548.72;5092544;28;20024;-76
2021/05/05 07:23:46;;;;;;;0.30;0.30;;;;;;;22.72;48.82;98581.00;5092345;28;20031;-76
2021/05/05 07:26:12;;;;;;;0.40;0.40;;;;;;;22.04;49.52;98516.38;5092312;28;20036;-75
2021/05/05 07:28:39;;;;;;;0.40;0.40;;;;;;;22.53;49.34;98535.03;5093490;28;20078;-76
2021/05/05 07:31:05;;;;;;;0.10;0.10;;;;;;;22.63;50.55;98522.16;5092166;28;20059;-76
2021/05/05 07:33:33;;;;;;;0.47;0.47;;;;;;;23.44;47.18;98554.28;5092109;28;20051;-76
2021/05/05 07:35:59;;;;;;;0.38;0.38;;;;;;;22.99;50.23;98514.47;5092177;28;20080;-76
2021/05/05 07:49:15;;;;;;;0.82;0.82;;;;;;;28.00;36.18;98498.63;5084264;28;20036;-78
2021/05/05 07:51:43;;;;;;;0.20;0.20;;;;;;;27.77;37.17;98523.31;5091811;28;20032;-76
2021/05/05 07:54:09;;;;;;;0.50;0.50;;;;;;;28.01;38.22;98525.69;5091894;28;20032;-75
2021/05/05 07:56:34;;;;;;;0.57;0.57;;;;;;;29.27;36.46;98549.19;5091819;28;20077;-77
2021/05/05 07:59:02;;;;;;;0.32;0.32;;;;;;;29.60;33.93;98538.75;5091961;28;20024;-76
2021/05/05 08:01:30;;;;;;;0.30;0.30;;;;;;;27.79;35.24;98532.03;5091432;28;20063;-75
2021/05/05 08:03:56;;;;;;;1.55;0.68;;;;;;;27.26;39.47;98506.84;5091508;28;20527;-77
2021/05/05 08:06:23;;;;;;;0.50;0.50;;;;;;;28.41;34.60;98496.88;5091401;28;20036;-76
2021/05/05 08:08:48;;;;;;;0.60;0.60;;;;;;;28.62;34.10;98506.81;5092046;28;20028;-77
2021/05/05 08:11:14;;;;;;;1.30;0.98;;;;;;;26.88;35.89;98485.91;5091650;28;20028;-76
2021/05/05 08:13:39;;;;;;;0.45;0.45;;;;;;;26.36;38.48;98530.16;5092005;28;20032;-76
2021/05/05 08:16:06;;;;;;;1.42;0.60;;;;;;;25.88;39.12;98520.84;5093039;28;20411;-75
2021/05/05 08:18:32;;;;;;;0.32;0.32;;;;;;;24.90;42.14;98474.06;5095771;28;20024;-75
2021/05/05 08:21:00;;;;;;;1.10;0.65;;;;;;;24.69;42.21;98488.03;5095653;28;20089;-75
2021/05/05 08:23:27;;;;;;;1.40;0.85;;;;;;;23.02;46.59;98492.94;5096107;28;20032;-74
2021/05/05 08:25:52;;;;;;;1.52;1.42;;;;;;;22.52;46.54;98516.59;5095942;28;20051;-76
2021/05/05 08:28:18;;;;;;;8.80;1.67;;;;;;;21.80;48.38;98467.13;5095732;28;20488;-74
2021/05/05 08:30:44;;;;;;;0.85;0.80;;;;;;;22.09;49.18;98524.03;5095688;28;20039;-74
2021/05/05 08:33:10;;;;;;;1.15;1.13;;;;;;;21.49;49.93;98521.69;5095394;28;20028;-74
2021/05/05 08:35:36;;;;;;;0.35;0.35;;;;;;;21.68;51.15;98530.31;5095559;28;20034;-73
2021/05/05 08:38:02;;;;;;;0.90;0.85;;;;;;;21.38;50.62;98518.13;5095198;28;20039;-73
2021/05/05 08:40:28;;;;;;;0.28;0.28;;;;;;;21.82;50.13;98520.78;5095256;28;20024;-74
2021/05/05 08:42:54;;;;;;;0.82;0.82;;;;;;;21.20;50.87;98463.25;5095113;28;20024;-74
2021/05/05 08:45:24;;;;;;;1.08;1.08;;;;;;;21.71;50.88;98518.03;5095178;28;20441;-74
2021/05/05 08:47:52;;;;;;;0.40;0.25;;;;;;;21.39;50.22;98475.47;5095096;28;20028;-73
2021/05/05 08:50:20;;;;;;;3.22;1.95;;;;;;;21.55;51.03;98504.78;5095094;28;20039;-74
2021/05/05 08:52:46;;;;;;;1.10;0.95;;;;;;;21.12;51.67;98490.31;5095662;28;20024;-73
2021/05/05 08:55:14;;;;;;;1.27;0.98;;;;;;;21.45;52.11;98521.19;5095222;28;20468;-75
2021/05/05 08:57:40;;;;;;;1.25;0.85;;;;;;;21.86;49.50;98517.72;5094910;28;20027;-74
2021/05/05 09:00:11;;;;;;;0.82;0.82;;;;;;;22.18;49.87;98523.75;5094668;28;20416;-74
2021/05/05 09:02:37;;;;;;;0.93;0.93;;;;;;;21.40;51.33;98502.25;5094681;28;20020;-74
2021/05/05 09:05:10;;;;;;;0.57;0.57;;;;;;;21.48;50.58;98508.91;5094690;28;20039;-74
2021/05/05 09:07:44;;;;;;;1.75;1.38;;;;;;;20.43;54.44;98455.63;5094658;28;20016;-74
2021/05/05 09:10:10;;;;;;;0.70;0.70;;;;;;;20.09;56.09;98475.19;5095012;28;20027;-75
2021/05/05 09:12:38;;;;;;;0.40;0.40;;;;;;;20.96;53.69;98510.75;5095470;28;20490;-76
2021/05/05 09:15:11;;;;;;;0.35;0.30;;;;;;;20.52;54.51;98506.66;5095180;28;20089;-78
2021/05/05 09:17:43;;;;;;;0.77;0.77;;;;;;;21.41;52.29;98438.38;5095164;28;20035;-76
2021/05/05 09:20:08;;;;;;;10.38;1.88;;;;;;;21.70;51.21;98453.88;5094483;28;20036;-77
2021/05/05 09:22:47;;;;;;;0.90;0.90;;;;;;;22.40;50.09;98438.38;5092804;28;20030;-76
2021/05/05 09:25:19;;;;;;;0.40;0.40;;;;;;;22.85;50.17;98486.66;5092905;28;20503;-77
2021/05/05 09:28:07;;;;;;;0.38;0.38;;;;;;;23.71;49.05;98479.13;5092982;28;20035;-77
2021/05/05 09:30:34;;;;;;;0.52;0.50;;;;;;;24.19;46.33;98457.72;5093703;28;20491;-76
2021/05/05 09:32:59;;;;;;;0.63;0.63;;;;;;;24.76;46.81;98473.28;5094287;28;20024;-76
2021/05/05 09:35:39;;;;;;;1.00;0.68;;;;;;;24.39;47.50;98447.94;5094424;28;20035;-76
2021/05/05 09:38:07;;;;;;;0.47;0.47;;;;;;;25.01;45.94;98476.75;5094748;28;20024;-77
2021/05/05 09:40:34;;;;;;;1.33;0.50;;;;;;;24.78;45.56;98450.09;5094509;28;20039;-76
2021/05/05 09:43:17;;;;;;;1.30;1.03;;;;;;;24.12;45.26;98456.25;5094715;28;20036;-75
2021/05/05 09:45:44;;;;;;;0.88;0.47;;;;;;;22.76;49.59;98402.50;5094383;28;20028;-76
2021/05/05 09:48:10;;;;;;;1.17;1.08;;;;;;;22.64;51.73;98430.75;5094372;28;20089;-76
2021/05/05 09:50:38;;;;;;;0.65;0.65;;;;;;;23.11;49.92;98444.66;5094901;28;20067;-76
2021/05/05 09:53:26;;;;;;;1.10;1.00;;;;;;;23.25;49.62;98435.03;5094210;28;20032;-76
2021/05/05 09:55:51;;;;;;;0.98;0.77;;;;;;;23.01;51.20;98410.44;5094387;28;20020;-76
2021/05/05 09:58:26;;;;;;;1.08;0.98;;;;;;;22.65;52.14;98398.50;5094292;28;20032;-76
2021/05/05 10:01:03;;;;;;;0.90;0.90;;;;;;;22.86;51.35;98401.63;5094074;28;20059;-77
2021/05/05 10:03:38;;;;;;;0.45;0.45;;;;;;;21.67;51.75;98405.06;5094273;28;20432;-75
2021/05/05 10:06:37;;;;;;;0.47;0.45;;;;;;;21.03;54.65;98409.88;5094046;28;20036;-79
2021/05/05 10:09:11;;;;;;;2.38;2.05;;;;;;;21.83;52.23;98409.81;5050446;28;20488;-76
2021/05/05 10:11:38;;;;;;;2.22;1.38;;;;;;;21.81;53.12;98380.69;5093911;28;20042;-74
2021/05/05 10:14:05;;;;;;;2.20;1.03;;;;;;;22.04;53.60;98407.41;5093892;28;20037;-75
2021/05/05 10:16:35;;;;;;;0.28;0.28;;;;;;;22.70;52.20;98402.53;5093829;28;20028;-76
2021/05/05 10:19:02;;;;;;;1.08;0.85;;;;;;;22.37;49.82;98352.91;5093702;28;20074;-76
2021/05/05 10:21:30;;;;;;;1.07;1.07;;;;;;;21.67;51.28;98365.69;5093697;28;20020;-75
2021/05/05 10:23:57;;;;;;;0.63;0.63;;;;;;;21.47;51.68;98374.47;5093926;28;20032;-76
2021/05/05 10:26:24;;;;;;;1.05;1.05;;;;;;;21.47;53.16;98375.25;5093960;28;20042;-76
2021/05/05 10:28:50;;;;;;;0.57;0.57;;;;;;;21.76;53.92;98370.25;5094092;28;20031;-77
2021/05/05 10:31:22;;;;;;;0.65;0.65;;;;;;;21.63;52.08;98379.25;5093717;28;20403;-76
2021/05/05 10:33:52;;;;;;;0.60;0.57;;;;;;;21.48;54.13;98356.34;5093678;28;20093;-76
2021/05/05 10:36:30;;;;;;;3.90;1.25;;;;;;;21.62;57.10;98315.88;5093811;28;20257;-77
2021/05/05 10:38:56;;;;;;;;;;;;;;;21.67;54.80;98362.88;5093340;28;20040;-77
2021/05/05 10:41:22;;;;;;;3.17;1.52;;;;;;;21.50;54.74;98356.59;5092834;28;19912;-77
2021/05/05 10:43:53;;;;;;;0.70;0.70;;;;;;;21.22;57.45;98364.38;5093634;28;20035;-76
2021/05/05 10:46:26;;;;;;;1.95;1.27;;;;;;;20.96;57.26;98320.53;5093530;28;20143;-77
2021/05/05 10:49:21;;;;;;;1.55;1.45;;;;;;;21.46;54.84;98342.78;5093532;28;20035;-77
2021/05/05 10:51:49;;;;;;;1.42;0.70;;;;;;;21.49;54.47;98332.56;5075835;28;20483;-78
2021/05/05 10:54:17;;;;;;;2.78;0.82;;;;;;;21.29;55.15;98341.34;5093079;28;20030;-77
2021/05/05 10:56:46;;;;;;;0.65;0.65;;;;;;;21.02;54.24;98303.66;5093269;28;20032;-77
2021/05/05 10:59:13;;;;;;;0.77;0.77;;;;;;;20.70;55.64;98336.94;5090439;28;20072;-77
2021/05/05 11:01:43;;;;;;;0.73;0.73;;;;;;;20.18;58.03;98331.13;5092333;28;20051;-74
2021/05/05 11:04:14;;;;;;;0.47;0.47;;;;;;;19.99;56.92;98330.09;5092337;28;20035;-76
2021/05/05 11:06:48;;;;;;;1.60;1.13;;;;;;;19.76;57.33;98298.50;5092043;28;20032;-77
2021/05/05 11:09:13;;;;;;;2.45;1.20;;;;;;;19.85;58.62;98343.84;5092137;28;20028;-75
2021/05/05 11:11:47;;;;;;;1.60;0.77;;;;;;;19.66;60.09;98333.63;5091676;28;20032;-78
2021/05/05 11:14:24;;;;;;;0.22;0.22;;;;;;;19.36;59.84;98320.03;5092155;28;20122;-76
2021/05/05 11:19:40;;;;;;;0.88;0.88;;;;;;;19.58;61.38;98291.34;5093583;28;20040;-76
2021/05/05 11:22:18;;;;;;;0.65;0.65;;;;;;;19.31;60.47;98332.00;5092528;28;20028;-75
2021/05/05 11:24:45;;;;;;;0.70;0.70;;;;;;;19.17;60.86;98318.22;5092446;28;20093;-78
2021/05/05 11:27:13;;;;;;;0.90;0.90;;;;;;;19.59;61.47;98320.13;5092571;28;20046;-78
2021/05/05 11:29:50;;;;;;;2.55;2.00;;;;;;;20.00;61.05;98326.03;5092153;28;20036;-78
2021/05/05 11:32:18;;;;;;;18.10;0.93;;;;;;;19.92;60.74;98311.75;5092537;28;20051;-76
2021/05/05 11:34:46;;;;;;;1.48;1.38;;;;;;;19.19;62.61;98254.81;5092130;28;20064;-76
2021/05/05 11:37:15;;;;;;;;;;;;;;;19.48;61.88;98318.06;5092647;28;20050;-75
2021/05/05 11:39:43;;;;;;;0.90;0.90;;;;;;;19.30;61.87;98307.28;5091845;28;19959;-77
2021/05/05 11:42:23;;;;;;;0.40;0.40;;;;;;;19.18;62.17;98300.88;5092051;28;20024;-76
2021/05/05 11:45:00;;;;;;;1.55;1.45;;;;;;;19.34;62.07;98263.75;5092508;28;20031;-76
2021/05/05 11:47:31;;;;;;;1.95;1.85;;;;;;;19.90;61.14;98311.47;5092081;28;20028;-78